sensor_id;sensor_type;location;lat;lon;timestamp;P1;durP1;ratioP1;P2;durP2;ratioP2
26435;SDS011;15351;52.408;16.826;2023-04-15T00:01:31;11.30;;;8.50;;
26435;SDS011;15351;52.408;16.826;2023-04-15T00:04:56;13.10;;;8.70;;
26435;SDS011;15351;52.408;16.826;2023-04-15T00:07:23;9.00;;;7.70;;
26435;SDS011;15351;52.408;16.826;2023-04-15T00:14:14;10.80;;;8.30;;
26435;SDS011;15351;52.408;16.826;2023-04-15T00:28:25;10.90;;;8.80;;
26435;SDS011;15351;52.408;16.826;2023-04-15T00:31:23;11.40;;;8.50;;
26435;SDS011;15351;52.408;16.826;2023-04-15T00:39:28;12.10;;;8.60;;
26435;SDS011;15351;52.408;16.826;2023-04-15T00:46:50;12.80;;;9.00;;
26435;SDS011;15351;52.408;16.826;2023-04-15T00:49:26;10.50;;;8.50;;
26435;SDS011;15351;52.408;16.826;2023-04-15T00:52:02;10.90;;;8.40;;
26435;SDS011;15351;52.408;16.826;2023-04-15T01:03:03;13.30;;;9.30;;
26435;SDS011;15351;52.408;16.826;2023-04-15T01:05:53;10.90;;;8.70;;
26435;SDS011;15351;52.408;16.826;2023-04-15T01:12:33;14.10;;;10.00;;
26435;SDS011;15351;52.408;16.826;2023-04-15T01:15:57;12.50;;;9.30;;
26435;SDS011;15351;52.408;16.826;2023-04-15T01:18:34;12.20;;;9.00;;
26435;SDS011;15351;52.408;16.826;2023-04-15T01:21:21;10.50;;;8.80;;
26435;SDS011;15351;52.408;16.826;2023-04-15T01:35:00;14.00;;;9.00;;
26435;SDS011;15351;52.408;16.826;2023-04-15T01:41:25;13.60;;;9.70;;
26435;SDS011;15351;52.408;16.826;2023-04-15T01:45:49;11.70;;;9.30;;
26435;SDS011;15351;52.408;16.826;2023-04-15T01:48:58;9.60;;;8.60;;
26435;SDS011;15351;52.408;16.826;2023-04-15T01:52:51;11.40;;;9.50;;
26435;SDS011;15351;52.408;16.826;2023-04-15T01:55:53;13.50;;;9.70;;
26435;SDS011;15351;52.408;16.826;2023-04-15T02:02:00;11.90;;;9.00;;
26435;SDS011;15351;52.408;16.826;2023-04-15T02:04:43;12.10;;;10.00;;
26435;SDS011;15351;52.408;16.826;2023-04-15T02:11:50;12.70;;;9.50;;
26435;SDS011;15351;52.408;16.826;2023-04-15T02:14:47;11.80;;;9.50;;
26435;SDS011;15351;52.408;16.826;2023-04-15T02:18:34;12.60;;;9.60;;
26435;SDS011;15351;52.408;16.826;2023-04-15T02:21:43;12.10;;;9.70;;
26435;SDS011;15351;52.408;16.826;2023-04-15T02:24:11;14.10;;;9.80;;
26435;SDS011;15351;52.408;16.826;2023-04-15T02:30:39;11.50;;;9.70;;
26435;SDS011;15351;52.408;16.826;2023-04-15T02:33:11;11.70;;;9.50;;
26435;SDS011;15351;52.408;16.826;2023-04-15T02:39:23;12.70;;;9.70;;
26435;SDS011;15351;52.408;16.826;2023-04-15T02:42:02;11.40;;;9.90;;
26435;SDS011;15351;52.408;16.826;2023-04-15T02:45:16;13.00;;;11.20;;
26435;SDS011;15351;52.408;16.826;2023-04-15T02:52:08;14.20;;;11.20;;
26435;SDS011;15351;52.408;16.826;2023-04-15T02:55:14;11.80;;;10.50;;
26435;SDS011;15351;52.408;16.826;2023-04-15T02:58:14;13.30;;;11.30;;
26435;SDS011;15351;52.408;16.826;2023-04-15T03:01:10;12.20;;;10.50;;
26435;SDS011;15351;52.408;16.826;2023-04-15T03:04:22;12.80;;;10.30;;
26435;SDS011;15351;52.408;16.826;2023-04-15T03:07:00;13.10;;;9.90;;
26435;SDS011;15351;52.408;16.826;2023-04-15T03:09:38;11.60;;;10.40;;
26435;SDS011;15351;52.408;16.826;2023-04-15T03:12:20;12.80;;;10.80;;
26435;SDS011;15351;52.408;16.826;2023-04-15T03:14:58;14.50;;;11.00;;
26435;SDS011;15351;52.408;16.826;2023-04-15T03:17:50;13.00;;;10.60;;
26435;SDS011;15351;52.408;16.826;2023-04-15T03:20:18;13.10;;;10.60;;
26435;SDS011;15351;52.408;16.826;2023-04-15T03:22:49;13.80;;;10.70;;
26435;SDS011;15351;52.408;16.826;2023-04-15T03:25:31;13.60;;;10.90;;
26435;SDS011;15351;52.408;16.826;2023-04-15T03:28:04;14.70;;;11.60;;
26435;SDS011;15351;52.408;16.826;2023-04-15T03:33:33;14.10;;;12.60;;
26435;SDS011;15351;52.408;16.826;2023-04-15T03:36:02;16.80;;;14.80;;
26435;SDS011;15351;52.408;16.826;2023-04-15T03:38:30;17.90;;;14.90;;
26435;SDS011;15351;52.408;16.826;2023-04-15T03:40:58;20.60;;;15.70;;
26435;SDS011;15351;52.408;16.826;2023-04-15T03:43:28;21.60;;;15.00;;
26435;SDS011;15351;52.408;16.826;2023-04-15T03:46:01;22.60;;;16.10;;
26435;SDS011;15351;52.408;16.826;2023-04-15T03:48:30;19.50;;;15.70;;
26435;SDS011;15351;52.408;16.826;2023-04-15T03:51:00;21.70;;;16.60;;
26435;SDS011;15351;52.408;16.826;2023-04-15T03:53:27;22.70;;;16.20;;
26435;SDS011;15351;52.408;16.826;2023-04-15T03:55:54;21.10;;;14.90;;
26435;SDS011;15351;52.408;16.826;2023-04-15T03:58:45;17.90;;;14.30;;
26435;SDS011;15351;52.408;16.826;2023-04-15T04:01:12;15.80;;;13.90;;
26435;SDS011;15351;52.408;16.826;2023-04-15T04:03:42;16.60;;;13.50;;
26435;SDS011;15351;52.408;16.826;2023-04-15T04:06:13;16.40;;;12.90;;
26435;SDS011;15351;52.408;16.826;2023-04-15T04:08:41;15.50;;;12.90;;
26435;SDS011;15351;52.408;16.826;2023-04-15T04:14:06;15.20;;;12.30;;
26435;SDS011;15351;52.408;16.826;2023-04-15T04:16:36;13.70;;;12.10;;
26435;SDS011;15351;52.408;16.826;2023-04-15T04:19:24;14.10;;;12.60;;
26435;SDS011;15351;52.408;16.826;2023-04-15T04:22:25;14.80;;;13.20;;
26435;SDS011;15351;52.408;16.826;2023-04-15T04:25:03;14.70;;;12.80;;
26435;SDS011;15351;52.408;16.826;2023-04-15T04:27:32;16.50;;;13.00;;
26435;SDS011;15351;52.408;16.826;2023-04-15T04:30:20;13.80;;;12.40;;
26435;SDS011;15351;52.408;16.826;2023-04-15T04:33:01;14.80;;;13.30;;
26435;SDS011;15351;52.408;16.826;2023-04-15T04:35:49;16.80;;;13.50;;
26435;SDS011;15351;52.408;16.826;2023-04-15T04:38:17;15.10;;;12.90;;
26435;SDS011;15351;52.408;16.826;2023-04-15T04:41:06;14.70;;;12.50;;
26435;SDS011;15351;52.408;16.826;2023-04-15T04:43:36;14.90;;;12.70;;
26435;SDS011;15351;52.408;16.826;2023-04-15T04:46:16;14.50;;;12.80;;
26435;SDS011;15351;52.408;16.826;2023-04-15T04:48:57;15.40;;;13.20;;
26435;SDS011;15351;52.408;16.826;2023-04-15T04:51:37;15.50;;;12.60;;
26435;SDS011;15351;52.408;16.826;2023-04-15T04:54:43;15.70;;;12.90;;
26435;SDS011;15351;52.408;16.826;2023-04-15T04:57:35;14.60;;;13.10;;
26435;SDS011;15351;52.408;16.826;2023-04-15T05:00:25;16.90;;;13.70;;
26435;SDS011;15351;52.408;16.826;2023-04-15T05:03:36;15.40;;;12.90;;
26435;SDS011;15351;52.408;16.826;2023-04-15T05:06:20;17.10;;;13.80;;
26435;SDS011;15351;52.408;16.826;2023-04-15T05:12:21;15.20;;;13.00;;
26435;SDS011;15351;52.408;16.826;2023-04-15T05:18:32;16.50;;;14.00;;
26435;SDS011;15351;52.408;16.826;2023-04-15T05:21:07;16.10;;;13.40;;
26435;SDS011;15351;52.408;16.826;2023-04-15T05:23:51;15.00;;;12.90;;
26435;SDS011;15351;52.408;16.826;2023-04-15T05:26:23;15.10;;;13.50;;
26435;SDS011;15351;52.408;16.826;2023-04-15T05:28:53;16.20;;;13.30;;
26435;SDS011;15351;52.408;16.826;2023-04-15T05:31:20;14.80;;;13.10;;
26435;SDS011;15351;52.408;16.826;2023-04-15T05:33:47;15.20;;;12.50;;
26435;SDS011;15351;52.408;16.826;2023-04-15T05:36:16;16.30;;;12.60;;
26435;SDS011;15351;52.408;16.826;2023-04-15T05:38:45;13.90;;;12.40;;
26435;SDS011;15351;52.408;16.826;2023-04-15T05:41:13;15.20;;;13.40;;
26435;SDS011;15351;52.408;16.826;2023-04-15T05:43:42;17.10;;;13.20;;
26435;SDS011;15351;52.408;16.826;2023-04-15T05:46:10;17.10;;;14.10;;
26435;SDS011;15351;52.408;16.826;2023-04-15T05:48:39;16.20;;;13.80;;
26435;SDS011;15351;52.408;16.826;2023-04-15T05:51:08;14.70;;;13.20;;
26435;SDS011;15351;52.408;16.826;2023-04-15T05:53:36;15.40;;;13.70;;
26435;SDS011;15351;52.408;16.826;2023-04-15T05:56:08;16.20;;;13.10;;
26435;SDS011;15351;52.408;16.826;2023-04-15T05:58:36;15.00;;;12.40;;
26435;SDS011;15351;52.408;16.826;2023-04-15T06:01:11;15.20;;;11.90;;
26435;SDS011;15351;52.408;16.826;2023-04-15T06:03:39;13.40;;;12.00;;
26435;SDS011;15351;52.408;16.826;2023-04-15T06:06:08;14.20;;;12.70;;
26435;SDS011;15351;52.408;16.826;2023-04-15T06:08:36;14.40;;;12.70;;
26435;SDS011;15351;52.408;16.826;2023-04-15T06:11:05;14.80;;;11.80;;
26435;SDS011;15351;52.408;16.826;2023-04-15T06:13:53;15.50;;;12.10;;
26435;SDS011;15351;52.408;16.826;2023-04-15T06:16:20;13.60;;;11.60;;
26435;SDS011;15351;52.408;16.826;2023-04-15T06:19:00;13.10;;;11.60;;
26435;SDS011;15351;52.408;16.826;2023-04-15T06:21:27;13.40;;;11.70;;
26435;SDS011;15351;52.408;16.826;2023-04-15T06:23:59;15.00;;;12.40;;
26435;SDS011;15351;52.408;16.826;2023-04-15T06:26:38;16.60;;;12.30;;
26435;SDS011;15351;52.408;16.826;2023-04-15T06:29:05;14.40;;;11.80;;
26435;SDS011;15351;52.408;16.826;2023-04-15T06:31:34;15.50;;;11.80;;
26435;SDS011;15351;52.408;16.826;2023-04-15T06:34:02;12.70;;;11.40;;
26435;SDS011;15351;52.408;16.826;2023-04-15T06:36:29;14.50;;;11.60;;
26435;SDS011;15351;52.408;16.826;2023-04-15T06:38:56;15.00;;;12.40;;
26435;SDS011;15351;52.408;16.826;2023-04-15T06:41:31;13.40;;;11.80;;
26435;SDS011;15351;52.408;16.826;2023-04-15T06:44:01;14.10;;;12.00;;
26435;SDS011;15351;52.408;16.826;2023-04-15T06:46:30;13.90;;;11.30;;
26435;SDS011;15351;52.408;16.826;2023-04-15T06:48:57;13.30;;;11.50;;
26435;SDS011;15351;52.408;16.826;2023-04-15T06:51:24;12.90;;;11.30;;
26435;SDS011;15351;52.408;16.826;2023-04-15T06:53:55;14.90;;;11.90;;
26435;SDS011;15351;52.408;16.826;2023-04-15T06:56:24;16.40;;;11.60;;
26435;SDS011;15351;52.408;16.826;2023-04-15T06:58:51;12.60;;;10.90;;
26435;SDS011;15351;52.408;16.826;2023-04-15T07:01:21;13.80;;;10.70;;
26435;SDS011;15351;52.408;16.826;2023-04-15T07:03:48;12.70;;;10.40;;
26435;SDS011;15351;52.408;16.826;2023-04-15T07:06:17;12.10;;;10.20;;
26435;SDS011;15351;52.408;16.826;2023-04-15T07:08:44;12.10;;;10.90;;
26435;SDS011;15351;52.408;16.826;2023-04-15T07:11:11;15.00;;;10.70;;
26435;SDS011;15351;52.408;16.826;2023-04-15T07:13:40;12.10;;;10.60;;
26435;SDS011;15351;52.408;16.826;2023-04-15T07:16:07;12.70;;;10.70;;
26435;SDS011;15351;52.408;16.826;2023-04-15T07:18:35;12.40;;;10.10;;
26435;SDS011;15351;52.408;16.826;2023-04-15T07:21:12;11.60;;;9.60;;
26435;SDS011;15351;52.408;16.826;2023-04-15T07:23:40;12.40;;;10.70;;
26435;SDS011;15351;52.408;16.826;2023-04-15T07:26:08;13.10;;;10.80;;
26435;SDS011;15351;52.408;16.826;2023-04-15T07:28:35;12.70;;;10.60;;
26435;SDS011;15351;52.408;16.826;2023-04-15T07:31:02;14.00;;;10.50;;
26435;SDS011;15351;52.408;16.826;2023-04-15T07:33:32;11.80;;;9.80;;
26435;SDS011;15351;52.408;16.826;2023-04-15T07:35:59;10.70;;;9.60;;
26435;SDS011;15351;52.408;16.826;2023-04-15T07:38:46;11.60;;;10.20;;
26435;SDS011;15351;52.408;16.826;2023-04-15T07:41:26;12.50;;;9.70;;
26435;SDS011;15351;52.408;16.826;2023-04-15T07:43:59;11.30;;;9.60;;
26435;SDS011;15351;52.408;16.826;2023-04-15T07:46:36;13.30;;;9.80;;
26435;SDS011;15351;52.408;16.826;2023-04-15T07:49:21;12.20;;;9.60;;
26435;SDS011;15351;52.408;16.826;2023-04-15T07:51:51;11.50;;;10.10;;
26435;SDS011;15351;52.408;16.826;2023-04-15T07:54:20;11.70;;;9.80;;
26435;SDS011;15351;52.408;16.826;2023-04-15T07:56:47;12.40;;;10.10;;
26435;SDS011;15351;52.408;16.826;2023-04-15T07:59:15;12.30;;;9.90;;
26435;SDS011;15351;52.408;16.826;2023-04-15T08:01:43;12.40;;;9.60;;
26435;SDS011;15351;52.408;16.826;2023-04-15T08:04:10;10.70;;;9.50;;
26435;SDS011;15351;52.408;16.826;2023-04-15T08:06:37;11.60;;;10.20;;
26435;SDS011;15351;52.408;16.826;2023-04-15T08:09:06;11.40;;;10.00;;
26435;SDS011;15351;52.408;16.826;2023-04-15T08:11:33;11.40;;;9.50;;
26435;SDS011;15351;52.408;16.826;2023-04-15T08:14:03;11.90;;;8.90;;
26435;SDS011;15351;52.408;16.826;2023-04-15T08:16:31;10.30;;;8.70;;
26435;SDS011;15351;52.408;16.826;2023-04-15T08:19:03;11.10;;;9.10;;
26435;SDS011;15351;52.408;16.826;2023-04-15T08:21:35;10.50;;;9.10;;
26435;SDS011;15351;52.408;16.826;2023-04-15T08:24:03;9.60;;;8.60;;
26435;SDS011;15351;52.408;16.826;2023-04-15T08:26:42;10.20;;;8.70;;
26435;SDS011;15351;52.408;16.826;2023-04-15T08:29:08;9.80;;;8.60;;
26435;SDS011;15351;52.408;16.826;2023-04-15T08:31:39;10.60;;;8.80;;
26435;SDS011;15351;52.408;16.826;2023-04-15T08:34:10;10.40;;;9.00;;
26435;SDS011;15351;52.408;16.826;2023-04-15T08:36:38;12.10;;;9.90;;
26435;SDS011;15351;52.408;16.826;2023-04-15T08:39:05;10.80;;;9.10;;
26435;SDS011;15351;52.408;16.826;2023-04-15T08:42:02;11.00;;;9.10;;
26435;SDS011;15351;52.408;16.826;2023-04-15T08:44:37;11.00;;;8.80;;
26435;SDS011;15351;52.408;16.826;2023-04-15T08:47:06;9.30;;;8.40;;
26435;SDS011;15351;52.408;16.826;2023-04-15T08:49:38;9.80;;;8.80;;
26435;SDS011;15351;52.408;16.826;2023-04-15T08:52:10;10.50;;;9.10;;
26435;SDS011;15351;52.408;16.826;2023-04-15T08:54:45;10.30;;;8.80;;
26435;SDS011;15351;52.408;16.826;2023-04-15T08:57:14;10.40;;;8.40;;
26435;SDS011;15351;52.408;16.826;2023-04-15T08:59:41;10.30;;;8.90;;
26435;SDS011;15351;52.408;16.826;2023-04-15T09:02:16;9.90;;;8.50;;
26435;SDS011;15351;52.408;16.826;2023-04-15T09:04:44;9.60;;;8.60;;
26435;SDS011;15351;52.408;16.826;2023-04-15T09:07:11;11.90;;;9.90;;
26435;SDS011;15351;52.408;16.826;2023-04-15T09:09:43;11.60;;;10.30;;
26435;SDS011;15351;52.408;16.826;2023-04-15T09:12:17;11.80;;;10.30;;
26435;SDS011;15351;52.408;16.826;2023-04-15T09:15:05;12.40;;;9.90;;
26435;SDS011;15351;52.408;16.826;2023-04-15T09:18:00;10.80;;;9.80;;
26435;SDS011;15351;52.408;16.826;2023-04-15T09:20:43;12.70;;;11.00;;
26435;SDS011;15351;52.408;16.826;2023-04-15T09:23:11;12.70;;;10.90;;
26435;SDS011;15351;52.408;16.826;2023-04-15T09:25:45;12.90;;;10.40;;
26435;SDS011;15351;52.408;16.826;2023-04-15T09:28:15;12.20;;;10.20;;
26435;SDS011;15351;52.408;16.826;2023-04-15T09:30:54;10.70;;;9.60;;
26435;SDS011;15351;52.408;16.826;2023-04-15T09:55:38;10.90;;;9.80;;
26435;SDS011;15351;52.408;16.826;2023-04-15T09:58:36;7.90;;;6.50;;
26435;SDS011;15351;52.408;16.826;2023-04-15T10:01:41;3.10;;;2.40;;
26435;SDS011;15351;52.408;16.826;2023-04-15T10:11:36;3.60;;;2.60;;
26435;SDS011;15351;52.408;16.826;2023-04-15T10:14:03;3.10;;;2.50;;
26435;SDS011;15351;52.408;16.826;2023-04-15T10:17:01;2.80;;;2.50;;
26435;SDS011;15351;52.408;16.826;2023-04-15T10:24:31;4.60;;;3.40;;
26435;SDS011;15351;52.408;16.826;2023-04-15T10:27:31;4.80;;;3.50;;
26435;SDS011;15351;52.408;16.826;2023-04-15T10:30:49;4.60;;;3.80;;
26435;SDS011;15351;52.408;16.826;2023-04-15T10:33:56;5.90;;;4.40;;
26435;SDS011;15351;52.408;16.826;2023-04-15T10:50:04;7.40;;;5.40;;
26435;SDS011;15351;52.408;16.826;2023-04-15T10:56:47;7.50;;;5.60;;
26435;SDS011;15351;52.408;16.826;2023-04-15T11:02:37;9.90;;;7.40;;
26435;SDS011;15351;52.408;16.826;2023-04-15T11:16:15;10.20;;;6.90;;
26435;SDS011;15351;52.408;16.826;2023-04-15T11:19:45;9.10;;;6.80;;
26435;SDS011;15351;52.408;16.826;2023-04-15T11:33:28;8.30;;;5.90;;
26435;SDS011;15351;52.408;16.826;2023-04-15T11:36:51;7.20;;;5.60;;
26435;SDS011;15351;52.408;16.826;2023-04-15T11:40:33;9.00;;;6.00;;
26435;SDS011;15351;52.408;16.826;2023-04-15T11:43:19;7.00;;;5.50;;
26435;SDS011;15351;52.408;16.826;2023-04-15T11:49:38;8.30;;;6.10;;
26435;SDS011;15351;52.408;16.826;2023-04-15T11:52:15;8.90;;;6.70;;
26435;SDS011;15351;52.408;16.826;2023-04-15T11:58:22;9.00;;;6.70;;
26435;SDS011;15351;52.408;16.826;2023-04-15T12:01:55;8.50;;;6.80;;
26435;SDS011;15351;52.408;16.826;2023-04-15T12:04:22;7.80;;;6.50;;
26435;SDS011;15351;52.408;16.826;2023-04-15T12:07:31;9.40;;;6.80;;
26435;SDS011;15351;52.408;16.826;2023-04-15T12:10:02;9.80;;;6.70;;
26435;SDS011;15351;52.408;16.826;2023-04-15T12:12:41;9.90;;;7.10;;
26435;SDS011;15351;52.408;16.826;2023-04-15T12:18:52;10.00;;;6.60;;
26435;SDS011;15351;52.408;16.826;2023-04-15T12:22:10;9.80;;;6.40;;
26435;SDS011;15351;52.408;16.826;2023-04-15T12:27:54;8.90;;;6.10;;
26435;SDS011;15351;52.408;16.826;2023-04-15T12:34:06;8.60;;;6.50;;
26435;SDS011;15351;52.408;16.826;2023-04-15T12:37:26;10.80;;;6.90;;
26435;SDS011;15351;52.408;16.826;2023-04-15T12:40:30;9.00;;;7.10;;
26435;SDS011;15351;52.408;16.826;2023-04-15T12:47:33;10.40;;;7.70;;
26435;SDS011;15351;52.408;16.826;2023-04-15T12:54:01;10.10;;;7.70;;
26435;SDS011;15351;52.408;16.826;2023-04-15T12:57:12;10.40;;;7.90;;
26435;SDS011;15351;52.408;16.826;2023-04-15T13:03:18;8.20;;;6.80;;
26435;SDS011;15351;52.408;16.826;2023-04-15T13:06:29;9.80;;;7.00;;
26435;SDS011;15351;52.408;16.826;2023-04-15T13:10:14;9.40;;;7.30;;
26435;SDS011;15351;52.408;16.826;2023-04-15T13:12:57;8.50;;;7.10;;
26435;SDS011;15351;52.408;16.826;2023-04-15T13:16:27;9.50;;;6.70;;
26435;SDS011;15351;52.408;16.826;2023-04-15T13:23:16;8.20;;;6.50;;
26435;SDS011;15351;52.408;16.826;2023-04-15T13:29:04;9.10;;;7.30;;
26435;SDS011;15351;52.408;16.826;2023-04-15T13:31:58;8.90;;;6.80;;
26435;SDS011;15351;52.408;16.826;2023-04-15T13:56:09;12.50;;;9.40;;
26435;SDS011;15351;52.408;16.826;2023-04-15T13:59:37;13.40;;;9.30;;
26435;SDS011;15351;52.408;16.826;2023-04-15T14:02:46;11.70;;;8.60;;
26435;SDS011;15351;52.408;16.826;2023-04-15T14:05:42;13.80;;;8.80;;
26435;SDS011;15351;52.408;16.826;2023-04-15T14:09:05;10.00;;;9.00;;
26435;SDS011;15351;52.408;16.826;2023-04-15T14:12:13;12.10;;;10.00;;
26435;SDS011;15351;52.408;16.826;2023-04-15T14:15:12;10.80;;;8.90;;
26435;SDS011;15351;52.408;16.826;2023-04-15T14:24:36;11.50;;;9.80;;
26435;SDS011;15351;52.408;16.826;2023-04-15T14:27:55;12.10;;;9.80;;
26435;SDS011;15351;52.408;16.826;2023-04-15T15:17:45;10.50;;;9.40;;
26435;SDS011;15351;52.408;16.826;2023-04-15T15:24:38;11.30;;;8.80;;
26435;SDS011;15351;52.408;16.826;2023-04-15T15:40:05;10.80;;;8.20;;
26435;SDS011;15351;52.408;16.826;2023-04-15T15:59:28;10.00;;;8.40;;
26435;SDS011;15351;52.408;16.826;2023-04-15T16:07:37;8.60;;;7.70;;
26435;SDS011;15351;52.408;16.826;2023-04-15T16:29:27;14.10;;;10.20;;
26435;SDS011;15351;52.408;16.826;2023-04-15T17:13:34;11.60;;;9.70;;
26435;SDS011;15351;52.408;16.826;2023-04-15T17:16:04;11.30;;;9.50;;
26435;SDS011;15351;52.408;16.826;2023-04-15T17:22:02;13.00;;;10.60;;
26435;SDS011;15351;52.408;16.826;2023-04-15T17:27:13;11.60;;;9.90;;
26435;SDS011;15351;52.408;16.826;2023-04-15T17:29:44;11.00;;;9.60;;
26435;SDS011;15351;52.408;16.826;2023-04-15T17:32:31;11.80;;;10.20;;
26435;SDS011;15351;52.408;16.826;2023-04-15T17:35:26;13.40;;;11.00;;
26435;SDS011;15351;52.408;16.826;2023-04-15T17:38:31;13.60;;;10.60;;
26435;SDS011;15351;52.408;16.826;2023-04-15T17:41:27;11.40;;;10.10;;
26435;SDS011;15351;52.408;16.826;2023-04-15T17:44:32;11.80;;;10.40;;
26435;SDS011;15351;52.408;16.826;2023-04-15T17:47:45;12.20;;;10.10;;
26435;SDS011;15351;52.408;16.826;2023-04-15T17:50:57;11.70;;;9.70;;
26435;SDS011;15351;52.408;16.826;2023-04-15T17:54:20;11.00;;;9.90;;
26435;SDS011;15351;52.408;16.826;2023-04-15T18:08:47;16.00;;;11.70;;
26435;SDS011;15351;52.408;16.826;2023-04-15T18:12:17;23.10;;;16.10;;
26435;SDS011;15351;52.408;16.826;2023-04-15T18:17:47;38.80;;;24.20;;
26435;SDS011;15351;52.408;16.826;2023-04-15T18:21:13;25.50;;;19.60;;
26435;SDS011;15351;52.408;16.826;2023-04-15T18:24:58;21.90;;;16.50;;
26435;SDS011;15351;52.408;16.826;2023-04-15T18:29:15;18.40;;;14.90;;
26435;SDS011;15351;52.408;16.826;2023-04-15T18:32:16;20.40;;;15.90;;
26435;SDS011;15351;52.408;16.826;2023-04-15T18:39:37;23.80;;;16.50;;
26435;SDS011;15351;52.408;16.826;2023-04-15T18:42:24;25.10;;;16.30;;
26435;SDS011;15351;52.408;16.826;2023-04-15T18:44:51;24.60;;;17.40;;
26435;SDS011;15351;52.408;16.826;2023-04-15T18:47:44;23.60;;;17.70;;
26435;SDS011;15351;52.408;16.826;2023-04-15T18:53:12;21.50;;;14.40;;
26435;SDS011;15351;52.408;16.826;2023-04-15T18:55:44;21.70;;;13.90;;
26435;SDS011;15351;52.408;16.826;2023-04-15T18:58:27;19.30;;;13.10;;
26435;SDS011;15351;52.408;16.826;2023-04-15T19:00:54;18.20;;;12.50;;
26435;SDS011;15351;52.408;16.826;2023-04-15T19:07:18;16.80;;;11.20;;
26435;SDS011;15351;52.408;16.826;2023-04-15T19:09:43;12.60;;;10.00;;
26435;SDS011;15351;52.408;16.826;2023-04-15T19:12:30;11.10;;;9.10;;
26435;SDS011;15351;52.408;16.826;2023-04-15T19:14:58;11.10;;;8.80;;
26435;SDS011;15351;52.408;16.826;2023-04-15T19:17:28;10.40;;;8.50;;
26435;SDS011;15351;52.408;16.826;2023-04-15T19:20:05;9.90;;;8.60;;
26435;SDS011;15351;52.408;16.826;2023-04-15T19:26:18;10.00;;;8.10;;
26435;SDS011;15351;52.408;16.826;2023-04-15T19:37:26;13.90;;;9.20;;
26435;SDS011;15351;52.408;16.826;2023-04-15T19:40:32;28.70;;;12.30;;
26435;SDS011;15351;52.408;16.826;2023-04-15T19:57:48;23.70;;;11.60;;
26435;SDS011;15351;52.408;16.826;2023-04-15T20:00:46;15.40;;;11.90;;
26435;SDS011;15351;52.408;16.826;2023-04-15T20:06:40;14.60;;;11.60;;
26435;SDS011;15351;52.408;16.826;2023-04-15T20:09:28;15.00;;;11.30;;
26435;SDS011;15351;52.408;16.826;2023-04-15T20:12:32;12.90;;;11.20;;
26435;SDS011;15351;52.408;16.826;2023-04-15T20:15:50;12.80;;;11.40;;
26435;SDS011;15351;52.408;16.826;2023-04-15T20:22:42;13.60;;;10.80;;
26435;SDS011;15351;52.408;16.826;2023-04-15T20:26:03;12.90;;;10.50;;
26435;SDS011;15351;52.408;16.826;2023-04-15T20:28:59;14.20;;;11.00;;
26435;SDS011;15351;52.408;16.826;2023-04-15T20:32:01;13.40;;;10.50;;
26435;SDS011;15351;52.408;16.826;2023-04-15T20:35:02;15.00;;;11.30;;
26435;SDS011;15351;52.408;16.826;2023-04-15T20:38:04;16.50;;;12.60;;
26435;SDS011;15351;52.408;16.826;2023-04-15T20:40:54;15.50;;;12.70;;
26435;SDS011;15351;52.408;16.826;2023-04-15T20:43:24;17.70;;;14.30;;
26435;SDS011;15351;52.408;16.826;2023-04-15T20:45:51;21.60;;;15.20;;
26435;SDS011;15351;52.408;16.826;2023-04-15T20:48:54;23.10;;;17.00;;
26435;SDS011;15351;52.408;16.826;2023-04-15T20:51:41;23.10;;;16.90;;
26435;SDS011;15351;52.408;16.826;2023-04-15T20:57:41;25.70;;;19.10;;
26435;SDS011;15351;52.408;16.826;2023-04-15T21:00:44;28.70;;;20.20;;
26435;SDS011;15351;52.408;16.826;2023-04-15T21:03:46;30.10;;;21.30;;
26435;SDS011;15351;52.408;16.826;2023-04-15T21:06:38;28.00;;;21.20;;
26435;SDS011;15351;52.408;16.826;2023-04-15T21:09:57;30.60;;;23.50;;
26435;SDS011;15351;52.408;16.826;2023-04-15T21:13:08;34.40;;;24.50;;
26435;SDS011;15351;52.408;16.826;2023-04-15T21:19:26;35.50;;;25.30;;
26435;SDS011;15351;52.408;16.826;2023-04-15T21:22:28;33.10;;;25.90;;
26435;SDS011;15351;52.408;16.826;2023-04-15T21:28:44;42.50;;;28.90;;
26435;SDS011;15351;52.408;16.826;2023-04-15T21:31:43;39.20;;;28.00;;
26435;SDS011;15351;52.408;16.826;2023-04-15T21:34:11;35.20;;;26.10;;
26435;SDS011;15351;52.408;16.826;2023-04-15T21:36:42;34.60;;;26.60;;
26435;SDS011;15351;52.408;16.826;2023-04-15T21:39:12;39.70;;;28.00;;
26435;SDS011;15351;52.408;16.826;2023-04-15T21:41:51;36.80;;;27.70;;
26435;SDS011;15351;52.408;16.826;2023-04-15T21:48:10;36.00;;;26.30;;
26435;SDS011;15351;52.408;16.826;2023-04-15T21:53:37;38.70;;;28.00;;
26435;SDS011;15351;52.408;16.826;2023-04-15T21:56:10;36.60;;;26.50;;
26435;SDS011;15351;52.408;16.826;2023-04-15T21:58:54;39.70;;;28.40;;
26435;SDS011;15351;52.408;16.826;2023-04-15T22:05:38;36.00;;;28.10;;
26435;SDS011;15351;52.408;16.826;2023-04-15T22:12:25;38.30;;;27.70;;
26435;SDS011;15351;52.408;16.826;2023-04-15T22:15:50;40.30;;;27.10;;
26435;SDS011;15351;52.408;16.826;2023-04-15T22:21:28;39.90;;;30.10;;
26435;SDS011;15351;52.408;16.826;2023-04-15T22:25:06;41.60;;;30.50;;
26435;SDS011;15351;52.408;16.826;2023-04-15T22:27:44;41.70;;;29.50;;
26435;SDS011;15351;52.408;16.826;2023-04-15T22:30:54;33.60;;;28.00;;
26435;SDS011;15351;52.408;16.826;2023-04-15T22:42:11;38.10;;;28.00;;
26435;SDS011;15351;52.408;16.826;2023-04-15T22:48:01;34.30;;;28.30;;
26435;SDS011;15351;52.408;16.826;2023-04-15T22:50:54;38.10;;;28.80;;
26435;SDS011;15351;52.408;16.826;2023-04-15T22:54:02;40.70;;;29.60;;
26435;SDS011;15351;52.408;16.826;2023-04-15T22:57:12;38.40;;;29.00;;
26435;SDS011;15351;52.408;16.826;2023-04-15T23:03:16;42.10;;;30.90;;
26435;SDS011;15351;52.408;16.826;2023-04-15T23:05:49;41.50;;;29.80;;
26435;SDS011;15351;52.408;16.826;2023-04-15T23:08:27;39.80;;;30.40;;
26435;SDS011;15351;52.408;16.826;2023-04-15T23:11:12;40.00;;;29.90;;
26435;SDS011;15351;52.408;16.826;2023-04-15T23:18:03;42.40;;;31.70;;
26435;SDS011;15351;52.408;16.826;2023-04-15T23:20:38;41.00;;;30.90;;
26435;SDS011;15351;52.408;16.826;2023-04-15T23:26:19;43.90;;;31.80;;
26435;SDS011;15351;52.408;16.826;2023-04-15T23:28:57;42.60;;;33.90;;
26435;SDS011;15351;52.408;16.826;2023-04-15T23:31:31;47.10;;;34.00;;
26435;SDS011;15351;52.408;16.826;2023-04-15T23:34:28;43.10;;;32.70;;
26435;SDS011;15351;52.408;16.826;2023-04-15T23:40:47;46.70;;;34.50;;
26435;SDS011;15351;52.408;16.826;2023-04-15T23:46:32;49.50;;;34.70;;
26435;SDS011;15351;52.408;16.826;2023-04-15T23:49:35;44.00;;;33.10;;
26435;SDS011;15351;52.408;16.826;2023-04-15T23:52:58;44.10;;;32.10;;
26435;SDS011;15351;52.408;16.826;2023-04-15T23:56:24;46.20;;;36.50;;
